createdAt,value
2022-08-28T00:02:26.900Z,16.50
2022-08-28T00:05:11.781Z,16.60
2022-08-28T00:07:51.924Z,16.60
2022-08-28T00:10:40.339Z,16.60
2022-08-28T00:13:32.002Z,16.60
2022-08-28T00:16:12.503Z,16.50
2022-08-28T00:19:00.202Z,16.60
2022-08-28T00:21:40.283Z,16.60
2022-08-28T00:24:08.290Z,16.60
2022-08-28T00:26:54.766Z,16.50
2022-08-28T00:29:25.144Z,16.50
2022-08-28T00:31:56.786Z,16.50
2022-08-28T00:34:43.931Z,16.50
2022-08-28T00:37:19.094Z,16.50
2022-08-28T00:39:49.519Z,16.40
2022-08-28T00:42:17.361Z,16.50
2022-08-28T00:44:53.868Z,16.40
2022-08-28T00:47:26.652Z,16.40
2022-08-28T00:53:07.227Z,16.40
2022-08-28T00:55:50.469Z,16.40
2022-08-28T00:59:14.795Z,16.40
2022-08-28T01:02:00.649Z,16.40
2022-08-28T01:43:22.453Z,16.20
2022-08-28T01:46:49.786Z,16.20
2022-08-28T01:49:28.462Z,16.20
2022-08-28T01:52:41.137Z,16.10
2022-08-28T01:55:20.660Z,16.00
2022-08-28T01:58:02.176Z,16.10
2022-08-28T02:00:30.587Z,16.10
2022-08-28T02:03:13.284Z,16.10
2022-08-28T02:05:48.121Z,16.10
2022-08-28T02:08:45.588Z,16.10
2022-08-28T02:11:13.836Z,16.10
2022-08-28T02:13:46.843Z,16.00
2022-08-28T02:16:26.417Z,16.00
2022-08-28T02:23:29.471Z,15.90
2022-08-28T03:30:18.412Z,15.80
2022-08-28T03:33:04.715Z,16.20
2022-08-28T03:39:05.018Z,15.90
2022-08-28T03:42:06.014Z,15.90
2022-08-28T03:49:45.496Z,15.90
2022-08-28T03:53:37.380Z,15.90
2022-08-28T03:57:02.687Z,15.90
2022-08-28T04:00:13.089Z,16.00
2022-08-28T04:12:41.851Z,16.00
2022-08-28T04:41:35.542Z,15.90
2022-08-28T04:50:26.692Z,16.00
2022-08-28T04:54:22.672Z,16.00
2022-08-28T04:57:01.434Z,16.20
2022-08-28T05:05:33.858Z,16.10
2022-08-28T05:10:57.438Z,16.10
2022-08-28T05:13:43.037Z,16.10
2022-08-28T05:30:03.307Z,16.20
2022-08-28T05:37:19.543Z,16.50
2022-08-28T05:41:14.035Z,16.40
2022-08-28T05:44:27.565Z,16.30
2022-08-28T05:52:50.128Z,16.40
2022-08-28T06:05:24.432Z,16.40
2022-08-28T08:16:28.928Z,17.00
2022-08-28T08:35:39.880Z,17.20
2022-08-28T08:52:11.210Z,17.10
2022-08-28T08:55:17.042Z,17.10
2022-08-28T08:58:59.978Z,17.10
2022-08-28T09:06:32.428Z,17.20
2022-08-28T09:48:14.572Z,17.30
2022-08-28T09:51:49.625Z,17.40
2022-08-28T09:54:42.972Z,17.40
2022-08-28T09:57:13.644Z,17.40
2022-08-28T09:59:42.403Z,17.40
2022-08-28T10:02:25.030Z,17.50
2022-08-28T10:05:16.431Z,17.40
2022-08-28T10:08:26.497Z,17.40
2022-08-28T10:11:26.672Z,17.50
2022-08-28T10:14:20.763Z,17.50
2022-08-28T10:17:16.293Z,17.50
2022-08-28T10:20:38.175Z,17.50
2022-08-28T10:23:44.476Z,17.60
2022-08-28T10:27:31.561Z,17.50
2022-08-28T10:31:22.498Z,17.40
2022-08-28T10:34:15.616Z,17.30
2022-08-28T10:36:52.605Z,17.40
2022-08-28T10:39:57.772Z,17.40
2022-08-28T10:42:56.936Z,17.30
2022-08-28T10:45:26.454Z,17.30
2022-08-28T10:48:09.466Z,17.30
2022-08-28T10:50:50.897Z,17.40
2022-08-28T10:54:09.991Z,17.40
2022-08-28T10:57:13.007Z,17.50
2022-08-28T11:31:49.893Z,17.60
2022-08-28T11:35:00.334Z,17.60
2022-08-28T11:37:42.691Z,17.60
2022-08-28T11:44:12.952Z,17.50
2022-08-28T11:47:28.237Z,17.50
2022-08-28T11:50:02.966Z,17.60
2022-08-28T11:52:59.742Z,17.60
2022-08-28T11:56:01.588Z,17.60
2022-08-28T11:58:39.449Z,17.70
2022-08-28T12:01:11.416Z,17.70
2022-08-28T12:03:55.359Z,17.70
2022-08-28T12:07:23.504Z,17.60
2022-08-28T12:19:55.369Z,17.40
2022-08-28T12:22:39.540Z,17.40
2022-08-28T12:25:27.740Z,17.60
2022-08-28T12:28:13.055Z,17.70
2022-08-28T12:36:26.806Z,17.80
2022-08-28T12:39:36.004Z,17.90
2022-08-28T12:42:17.564Z,17.90
2022-08-28T12:49:30.247Z,18.00
2022-08-28T12:52:17.662Z,18.10
2022-08-28T12:54:49.339Z,18.20
2022-08-28T12:57:20.355Z,18.20
2022-08-28T12:59:49.360Z,18.10
2022-08-28T13:02:35.765Z,18.20
2022-08-28T13:05:10.347Z,18.20
2022-08-28T13:07:47.885Z,18.20
2022-08-28T13:10:34.501Z,18.20
2022-08-28T13:13:46.824Z,18.30
2022-08-28T13:16:42.656Z,18.30
2022-08-28T13:19:28.962Z,18.30
2022-08-28T13:22:03.432Z,18.30
2022-08-28T13:24:31.099Z,18.30
2022-08-28T13:27:06.814Z,18.40
2022-08-28T13:29:36.459Z,18.30
2022-08-28T13:32:06.730Z,18.30
2022-08-28T13:34:36.819Z,18.30
2022-08-28T13:37:14.750Z,18.30
2022-08-28T13:39:48.293Z,18.30
2022-08-28T13:42:18.211Z,18.40
2022-08-28T13:44:53.859Z,18.50
2022-08-28T13:47:21.540Z,18.50
2022-08-28T13:49:49.234Z,18.50
2022-08-28T13:52:17.657Z,18.50
2022-08-28T13:54:48.921Z,18.50
2022-08-28T13:57:17.072Z,18.50
2022-08-28T13:59:44.974Z,18.60
2022-08-28T14:02:33.223Z,18.60
2022-08-28T14:05:01.357Z,18.60
2022-08-28T14:07:29.552Z,18.80
2022-08-28T14:09:57.662Z,18.80
2022-08-28T14:12:32.663Z,18.80
2022-08-28T14:15:10.725Z,18.80
2022-08-28T14:17:38.479Z,18.90
2022-08-28T14:20:07.600Z,19.10
2022-08-28T14:22:36.233Z,19.10
2022-08-28T14:25:04.830Z,18.90
2022-08-28T14:27:32.936Z,18.90
2022-08-28T14:30:01.606Z,19.00
2022-08-28T14:32:29.311Z,19.00
2022-08-28T14:34:57.040Z,19.30
2022-08-28T14:37:24.771Z,19.50
2022-08-28T14:39:53.270Z,19.70
2022-08-28T14:42:20.987Z,19.60
2022-08-28T14:44:48.982Z,19.50
2022-08-28T14:47:16.742Z,19.50
2022-08-28T14:49:44.554Z,19.30
2022-08-28T14:52:12.559Z,19.30
2022-08-28T14:54:40.634Z,19.20
2022-08-28T14:57:19.672Z,19.10
2022-08-28T14:59:51.201Z,19.00
2022-08-28T15:02:19.025Z,18.90
2022-08-28T15:04:46.720Z,18.90
2022-08-28T15:07:15.457Z,18.90
2022-08-28T15:09:43.682Z,18.80
2022-08-28T15:12:11.499Z,18.80
2022-08-28T15:14:55.183Z,18.80
2022-08-28T15:17:33.511Z,18.80
2022-08-28T15:20:04.041Z,18.80
2022-08-28T15:22:31.744Z,18.80
2022-08-28T15:24:59.452Z,18.80
2022-08-28T15:27:27.195Z,18.70
2022-08-28T15:29:55.149Z,18.70
2022-08-28T15:32:23.157Z,18.70
2022-08-28T15:34:51.864Z,18.70
2022-08-28T15:37:19.599Z,18.70
2022-08-28T15:40:05.774Z,18.70
2022-08-28T15:42:33.618Z,18.70
2022-08-28T15:45:01.397Z,18.80
2022-08-28T15:47:29.087Z,18.80
2022-08-28T15:49:58.061Z,18.80
2022-08-28T15:52:25.850Z,18.70
2022-08-28T15:54:53.789Z,18.70
2022-08-28T15:57:21.755Z,18.70
2022-08-28T15:59:50.949Z,18.70
2022-08-28T16:02:20.983Z,18.60
2022-08-28T16:04:50.845Z,18.60
2022-08-28T16:07:20.259Z,18.50
2022-08-28T16:09:49.116Z,18.60
2022-08-28T16:12:20.824Z,18.60
2022-08-28T16:14:50.431Z,18.60
2022-08-28T16:17:19.208Z,18.70
2022-08-28T16:19:48.062Z,18.80
2022-08-28T16:22:16.477Z,19.00
2022-08-28T16:24:47.525Z,19.10
2022-08-28T16:27:17.539Z,19.30
2022-08-28T16:29:46.042Z,19.30
2022-08-28T16:32:19.694Z,19.30
2022-08-28T16:34:47.709Z,19.20
2022-08-28T16:37:21.546Z,19.10
2022-08-28T16:39:58.642Z,19.00
2022-08-28T16:42:30.909Z,18.90
2022-08-28T16:45:02.071Z,18.80
2022-08-28T16:47:32.284Z,18.80
2022-08-28T16:50:12.571Z,19.00
2022-08-28T16:52:40.520Z,19.00
2022-08-28T16:55:09.981Z,18.90
2022-08-28T16:57:38.585Z,18.80
2022-08-28T17:00:10.172Z,18.70
2022-08-28T17:02:37.984Z,18.70
2022-08-28T17:05:06.976Z,18.80
2022-08-28T17:07:37.394Z,18.80
2022-08-28T17:10:06.628Z,18.80
2022-08-28T17:12:34.561Z,18.80
2022-08-28T17:15:02.865Z,19.00
2022-08-28T17:17:30.577Z,19.20
2022-08-28T17:19:58.551Z,19.40
2022-08-28T17:22:32.507Z,19.50
2022-08-28T17:25:00.293Z,19.40
2022-08-28T17:27:28.967Z,19.20
2022-08-28T17:29:56.890Z,19.00
2022-08-28T17:32:25.075Z,18.80
2022-08-28T17:34:53.314Z,18.70
2022-08-28T17:37:21.233Z,18.60
2022-08-28T17:39:49.002Z,18.60
2022-08-28T17:42:16.794Z,18.60
2022-08-28T17:44:55.437Z,18.60
2022-08-28T17:47:27.517Z,18.60
2022-08-28T17:50:02.726Z,18.50
2022-08-28T17:52:30.665Z,18.60
2022-08-28T17:54:58.605Z,18.50
2022-08-28T17:57:28.940Z,18.40
2022-08-28T17:59:58.343Z,18.30
2022-08-28T18:02:26.832Z,18.20
2022-08-28T18:04:54.668Z,18.20
2022-08-28T18:07:23.650Z,18.10
2022-08-28T18:09:51.506Z,18.20
2022-08-28T18:12:20.142Z,18.10
2022-08-28T18:14:47.934Z,18.10
2022-08-28T18:17:16.278Z,18.10
2022-08-28T18:19:44.104Z,18.00
2022-08-28T18:22:13.039Z,17.90
2022-08-28T18:24:41.489Z,17.90
2022-08-28T18:27:10.020Z,17.80
2022-08-28T18:29:39.648Z,17.90
2022-08-28T18:32:10.574Z,17.90
2022-08-28T18:34:38.733Z,17.90
2022-08-28T18:37:06.968Z,17.80
2022-08-28T18:39:36.002Z,17.80
2022-08-28T18:42:03.922Z,17.80
2022-08-28T18:44:37.987Z,17.90
2022-08-28T18:47:05.832Z,17.70
2022-08-28T18:49:33.927Z,17.70
2022-08-28T18:52:01.770Z,17.70
2022-08-28T18:54:31.922Z,17.60
2022-08-28T18:57:04.153Z,17.60
2022-08-28T18:59:33.395Z,17.50
2022-08-28T19:02:01.281Z,17.50
2022-08-28T19:04:29.343Z,17.50
2022-08-28T19:06:57.257Z,17.40
2022-08-28T19:09:31.749Z,17.40
2022-08-28T19:12:03.492Z,17.40
2022-08-28T19:14:31.812Z,17.30
2022-08-28T19:17:00.144Z,17.30
2022-08-28T19:19:33.519Z,17.30
2022-08-28T19:22:01.838Z,17.30
2022-08-28T19:24:36.275Z,17.20
2022-08-28T19:27:05.835Z,17.10
2022-08-28T19:29:39.122Z,17.10
2022-08-28T19:32:09.590Z,17.00
2022-08-28T19:34:40.174Z,16.90
2022-08-28T19:37:08.214Z,17.00
2022-08-28T19:39:38.831Z,17.00
2022-08-28T19:42:07.618Z,17.00
2022-08-28T19:44:44.985Z,16.90
2022-08-28T19:47:13.785Z,16.90
2022-08-28T19:50:25.629Z,17.00
2022-08-28T19:55:51.990Z,16.90
2022-08-28T19:58:19.924Z,16.80
2022-08-28T20:00:50.961Z,16.60
2022-08-28T20:03:22.935Z,16.60
2022-08-28T20:05:55.013Z,16.50
2022-08-28T20:08:23.914Z,16.40
2022-08-28T20:10:51.933Z,16.40
2022-08-28T20:13:19.916Z,16.30
2022-08-28T20:15:49.245Z,16.30
2022-08-28T20:18:17.703Z,16.40
2022-08-28T20:20:47.691Z,16.40
2022-08-28T20:23:17.706Z,16.40
2022-08-28T20:25:49.944Z,16.40
2022-08-28T20:28:26.766Z,16.50
2022-08-28T20:30:54.833Z,16.50
2022-08-28T20:33:23.068Z,16.50
2022-08-28T20:36:04.042Z,16.50
2022-08-28T20:38:33.772Z,16.60
2022-08-28T20:41:07.915Z,16.50
2022-08-28T20:43:47.290Z,16.50
2022-08-28T20:46:18.855Z,16.40
2022-08-28T20:48:46.844Z,16.40
2022-08-28T20:51:16.023Z,16.50
2022-08-28T20:53:45.836Z,16.40
2022-08-28T20:56:17.139Z,16.40
2022-08-28T20:58:47.345Z,16.60
2022-08-28T21:01:18.253Z,16.30
2022-08-28T21:03:50.095Z,16.30
2022-08-28T21:06:19.545Z,16.30
2022-08-28T21:08:50.040Z,16.30
2022-08-28T21:11:19.255Z,16.20
2022-08-28T21:13:58.651Z,16.00
2022-08-28T21:16:26.760Z,16.00
2022-08-28T21:19:14.388Z,15.90
2022-08-28T21:21:44.563Z,15.90
2022-08-28T21:24:14.764Z,16.00
2022-08-28T21:26:51.008Z,16.00
2022-08-28T21:29:21.997Z,16.00
2022-08-28T21:31:52.329Z,16.00
2022-08-28T21:34:22.192Z,16.00
